Pagina principale
METAR-TAF:

METAR-TAF

Aeroporti :

Şırnak, Turchia

latitudine: 37-21-50N, longitudine: 42-03-36E, altezza: 621 m

Osservazione

Il bollettino è stato emesso 1 ora e 1 minuti fa, alle 12:50 UTC
Vento 3 kt da direzioni variabili
Temperature 29°C
Umidità 27%
Pressione 1016 hPa
Visibilità 10 km o più
nessuna nube inferiore a 1500 m e nessun cumulonembo

METAR: LTCV 261250Z VRB03KT CAVOK 29/08 Q1016

Ora: 16:51 (13:51 UTC)

Previsione

Il bollettino è stato emesso 3 ore e 11 minuti fa, alle 10:40 UTC
Previsione valida dal 26 alle 12 UTC al 26 alle 21 UTC
Vento 7 kt da ovest/nord-ovest
Visibilità 10 km o più
nessuna nube inferiore a 1500 m e nessun cumulonembo

TAF: LTCV 261040Z 2612/2621 30007KT CAVOK

Osservazioni e previsioni meteorologiche di più di 4000 aeroporti (messaggi METAR e TAF).

Le stazioni disponibili sono rappresentate dai dischi gialli e rossi sulla carta.

Puntare il mouse per vedere il nome della stazione.

Clicca sopra per visualizzare le osservazioni e previsioni meteorologiche.

Per cambiare la mappa : fare clic sui pulsanti verdi con una croce nera per ingrandire, il pulsante verde con un trattino per diminuire, o sulla freccia verde per le mappe adiacenti.


METAR-TAF: